createdAt,value
2023-02-22T00:02:12.567Z,3.71
2023-02-22T00:04:41.623Z,3.49
2023-02-22T00:07:10.873Z,3.40
2023-02-22T00:09:40.257Z,3.54
2023-02-22T00:12:10.856Z,3.55
2023-02-22T00:14:39.838Z,3.54
2023-02-22T00:17:11.469Z,3.37
2023-02-22T00:19:41.193Z,3.20
2023-02-22T00:22:10.808Z,3.07
2023-02-22T00:24:45.101Z,3.09
2023-02-22T00:27:13.180Z,3.30
2023-02-22T00:29:44.729Z,3.33
2023-02-22T00:32:14.855Z,3.29
2023-02-22T00:34:50.401Z,3.22
2023-02-22T00:37:19.561Z,3.03
2023-02-22T00:39:49.797Z,2.88
2023-02-22T00:42:18.869Z,2.84
2023-02-22T00:44:48.343Z,2.98
2023-02-22T00:47:16.369Z,2.97
2023-02-22T00:49:48.035Z,3.00
2023-02-22T00:52:16.752Z,2.81
2023-02-22T00:54:46.516Z,2.67
2023-02-22T00:57:14.267Z,2.55
2023-02-22T00:59:41.143Z,2.52
2023-02-22T01:02:08.990Z,2.67
2023-02-22T01:04:37.699Z,2.79
2023-02-22T01:07:07.850Z,2.80
2023-02-22T01:09:38.953Z,2.66
2023-02-22T01:12:07.437Z,2.49
2023-02-22T01:14:36.916Z,2.45
2023-02-22T01:17:04.267Z,2.65
2023-02-22T01:19:35.357Z,2.69
2023-02-22T01:22:02.244Z,2.54
2023-02-22T01:24:31.165Z,2.41
2023-02-22T01:26:58.798Z,2.35
2023-02-22T01:29:26.887Z,2.42
2023-02-22T01:31:55.799Z,2.57
2023-02-22T01:34:23.491Z,2.54
2023-02-22T01:36:53.390Z,2.36
2023-02-22T01:39:23.922Z,2.18
2023-02-22T01:41:57.797Z,2.04
2023-02-22T01:44:27.478Z,2.05
2023-02-22T01:46:58.191Z,2.28
2023-02-22T01:49:27.595Z,2.38
2023-02-22T01:51:56.887Z,2.35
2023-02-22T01:54:49.000Z,2.16
2023-02-22T01:57:29.613Z,1.99
2023-02-22T02:00:00.074Z,1.90
2023-02-22T02:02:28.221Z,1.99
2023-02-22T02:04:58.426Z,2.20
2023-02-22T02:07:29.212Z,2.29
2023-02-22T02:09:57.552Z,2.28
2023-02-22T02:12:27.338Z,2.26
2023-02-22T02:15:12.943Z,2.29
2023-02-22T02:17:40.272Z,2.35
2023-02-22T02:20:58.783Z,2.26
2023-02-22T02:23:51.140Z,2.15
2023-02-22T02:26:46.184Z,2.21
2023-02-22T02:29:34.293Z,2.40
2023-02-22T02:32:08.385Z,2.45
2023-02-22T02:34:35.661Z,2.49
2023-02-22T02:37:09.399Z,2.58
2023-02-22T02:40:17.881Z,2.64
2023-02-22T02:43:18.177Z,2.69
2023-02-22T02:46:03.951Z,2.78
2023-02-22T02:48:33.590Z,2.75
2023-02-22T02:51:05.032Z,2.73
2023-02-22T02:53:37.180Z,2.62
2023-02-22T02:56:05.029Z,2.47
2023-02-22T02:58:34.707Z,2.36
2023-02-22T03:01:03.863Z,2.35
2023-02-22T03:03:41.044Z,2.46
2023-02-22T03:06:28.297Z,2.49
2023-02-22T03:09:43.314Z,2.52
2023-02-22T03:12:32.593Z,2.54
2023-02-22T03:15:01.379Z,2.37
2023-02-22T03:17:55.975Z,2.25
2023-02-22T03:20:38.057Z,2.12
2023-02-22T03:23:11.257Z,2.21
2023-02-22T03:26:11.656Z,2.44
2023-02-22T03:28:41.352Z,2.53
2023-02-22T03:31:25.531Z,2.46
2023-02-22T03:33:55.008Z,2.30
2023-02-22T03:36:28.112Z,2.21
2023-02-22T03:39:15.578Z,2.17
2023-02-22T03:41:53.135Z,2.36
2023-02-22T03:44:24.495Z,2.66
2023-02-22T03:46:53.029Z,2.69
2023-02-22T03:49:37.699Z,2.47
2023-02-22T03:52:09.136Z,2.28
2023-02-22T03:54:36.844Z,2.17
2023-02-22T03:57:12.113Z,2.10
2023-02-22T03:59:46.233Z,2.08
2023-02-22T04:02:13.973Z,2.30
2023-02-22T04:04:41.725Z,2.37
2023-02-22T04:07:08.782Z,2.27
2023-02-22T04:09:38.518Z,2.14
2023-02-22T04:12:05.630Z,2.02
2023-02-22T04:14:44.831Z,1.89
2023-02-22T04:17:12.266Z,1.76
2023-02-22T04:19:39.815Z,1.81
2023-02-22T04:22:08.860Z,2.05
2023-02-22T04:24:35.886Z,1.97
2023-02-22T04:27:04.654Z,1.76
2023-02-22T04:29:37.716Z,1.60
2023-02-22T04:32:21.826Z,1.48
2023-02-22T04:34:49.794Z,1.40
2023-02-22T04:37:18.390Z,1.46
2023-02-22T04:39:48.872Z,1.76
2023-02-22T04:42:19.473Z,1.82
2023-02-22T04:44:47.219Z,1.61
2023-02-22T04:47:14.577Z,1.41
2023-02-22T04:49:41.965Z,1.30
2023-02-22T04:52:08.954Z,1.12
2023-02-22T04:54:38.634Z,1.00
2023-02-22T04:57:09.955Z,0.90
2023-02-22T04:59:38.491Z,0.98
2023-02-22T05:02:06.699Z,1.30
2023-02-22T05:04:34.206Z,1.35
2023-02-22T05:07:03.389Z,1.17
2023-02-22T05:09:31.114Z,1.07
2023-02-22T05:12:02.315Z,1.04
2023-02-22T05:14:30.838Z,1.02
2023-02-22T05:17:01.889Z,0.99
2023-02-22T05:19:30.406Z,0.90
2023-02-22T05:21:59.693Z,0.77
2023-02-22T05:24:27.722Z,0.80
2023-02-22T05:26:59.835Z,0.77
2023-02-22T05:29:26.938Z,0.62
2023-02-22T05:31:58.877Z,0.48
2023-02-22T05:34:30.316Z,0.41
2023-02-22T05:36:59.106Z,0.33
2023-02-22T05:39:32.147Z,0.27
2023-02-22T05:42:05.566Z,0.21
2023-02-22T05:44:41.174Z,0.14
2023-02-22T05:47:09.803Z,0.05
2023-02-22T05:49:40.409Z,0.02
2023-02-22T05:52:08.686Z,-0.00
2023-02-22T05:57:35.038Z,-0.03
2023-02-22T06:00:16.104Z,0.24
2023-02-22T06:03:11.169Z,0.33
2023-02-22T06:05:45.197Z,0.23
2023-02-22T06:08:22.970Z,0.15
2023-02-22T06:11:29.706Z,0.09
2023-02-22T06:14:06.339Z,0.02
2023-02-22T06:17:08.205Z,-0.09
2023-02-22T06:19:42.504Z,-0.21
2023-02-22T06:22:17.444Z,-0.28
2023-02-22T06:24:51.909Z,-0.31
2023-02-22T06:27:37.478Z,-0.33
2023-02-22T06:30:13.321Z,-0.39
2023-02-22T06:32:54.949Z,-0.41
2023-02-22T06:35:28.869Z,-0.45
2023-02-22T06:37:59.407Z,-0.48
2023-02-22T06:40:31.602Z,-0.55
2023-02-22T06:43:04.474Z,-0.64
2023-02-22T06:45:39.361Z,-0.73
2023-02-22T06:48:12.254Z,-0.77
2023-02-22T06:50:43.192Z,-0.76
2023-02-22T06:53:18.578Z,-0.75
2023-02-22T06:55:54.036Z,-0.71
2023-02-22T06:58:27.365Z,-0.65
2023-02-22T07:01:04.381Z,-0.60
2023-02-22T07:03:40.503Z,-0.58
2023-02-22T07:06:18.319Z,-0.59
2023-02-22T07:08:50.674Z,-0.62
2023-02-22T07:11:22.274Z,-0.64
2023-02-22T07:14:05.521Z,-0.60
2023-02-22T07:16:42.214Z,-0.56
2023-02-22T07:19:14.624Z,-0.53
2023-02-22T07:21:59.519Z,-0.56
2023-02-22T07:24:30.078Z,-0.57
2023-02-22T07:27:04.570Z,-0.56
2023-02-22T07:29:36.842Z,-0.50
2023-02-22T07:33:01.247Z,-0.42
2023-02-22T07:35:58.759Z,-0.45
2023-02-22T07:38:51.761Z,-0.48
2023-02-22T07:41:24.956Z,-0.47
2023-02-22T07:43:56.424Z,-0.43
2023-02-22T07:46:30.665Z,-0.40
2023-02-22T07:49:03.087Z,-0.43
2023-02-22T07:51:39.584Z,-0.51
2023-02-22T07:54:16.229Z,-0.58
2023-02-22T07:56:52.574Z,-0.60
2023-02-22T07:59:24.547Z,-0.58
2023-02-22T08:01:55.695Z,-0.58
2023-02-22T08:04:28.634Z,-0.57
2023-02-22T08:07:01.670Z,-0.51
2023-02-22T08:09:34.408Z,-0.51
2023-02-22T08:12:08.123Z,-0.56
2023-02-22T08:14:43.722Z,-0.61
2023-02-22T08:17:17.709Z,-0.64
2023-02-22T08:19:50.676Z,-0.62
2023-02-22T08:22:25.534Z,-0.59
2023-02-22T08:24:56.018Z,-0.55
2023-02-22T08:27:26.359Z,-0.46
2023-02-22T08:29:56.529Z,-0.34
2023-02-22T08:32:30.341Z,-0.24
2023-02-22T08:35:03.743Z,-0.22
2023-02-22T08:37:44.746Z,-0.21
2023-02-22T08:40:19.450Z,-0.24
2023-02-22T08:42:48.987Z,-0.30
2023-02-22T08:45:20.741Z,-0.37
2023-02-22T08:47:51.801Z,-0.42
2023-02-22T08:50:27.000Z,-0.43
2023-02-22T08:53:01.526Z,-0.43
2023-02-22T08:55:37.128Z,-0.39
2023-02-22T08:58:12.471Z,-0.40
2023-02-22T09:00:41.742Z,-0.49
2023-02-22T09:03:15.710Z,-0.44
2023-02-22T09:05:49.540Z,-0.34
2023-02-22T09:08:26.646Z,-0.27
2023-02-22T09:11:02.018Z,-0.26
2023-02-22T09:13:39.010Z,-0.28
2023-02-22T09:16:16.079Z,-0.31
2023-02-22T09:18:45.179Z,-0.31
2023-02-22T09:21:18.915Z,-0.24
2023-02-22T09:23:55.690Z,-0.17
2023-02-22T09:26:35.555Z,-0.21
2023-02-22T09:29:16.344Z,-0.19
2023-02-22T09:31:50.891Z,-0.10
2023-02-22T09:34:30.694Z,-0.05
2023-02-22T09:37:10.169Z,-0.04
2023-02-22T09:39:43.382Z,-0.02
2023-02-22T09:42:28.992Z,-0.04
2023-02-22T09:45:26.922Z,-0.10
2023-02-22T09:48:20.821Z,-0.18
2023-02-22T09:50:58.767Z,-0.20
2023-02-22T09:53:42.086Z,-0.15
2023-02-22T09:56:13.712Z,-0.02
2023-02-22T09:58:52.903Z,0.03
2023-02-22T10:01:41.275Z,0.02
2023-02-22T10:04:33.464Z,0.02
2023-02-22T10:07:14.332Z,0.04
2023-02-22T10:10:06.782Z,0.03
2023-02-22T10:12:44.243Z,-0.04
2023-02-22T10:15:32.525Z,-0.16
2023-02-22T10:18:29.808Z,-0.17
2023-02-22T10:21:45.277Z,0.02
2023-02-22T10:24:39.798Z,0.19
2023-02-22T10:27:20.145Z,0.11
2023-02-22T10:29:55.464Z,0.06
2023-02-22T10:32:48.324Z,0.10
2023-02-22T10:35:28.012Z,0.12
2023-02-22T10:38:32.184Z,0.15
2023-02-22T10:41:15.534Z,0.23
2023-02-22T10:43:47.045Z,0.31
2023-02-22T10:46:18.432Z,0.35
2023-02-22T10:49:05.073Z,0.37
2023-02-22T10:51:37.513Z,0.44
2023-02-22T10:54:16.833Z,0.47
2023-02-22T10:56:52.551Z,0.43
2023-02-22T10:59:33.223Z,0.40
2023-02-22T11:02:23.572Z,0.36
2023-02-22T11:04:59.094Z,0.30
2023-02-22T11:07:39.175Z,0.34
2023-02-22T11:10:12.099Z,0.41
2023-02-22T11:12:49.284Z,0.43
2023-02-22T11:15:24.866Z,0.46
2023-02-22T11:18:02.132Z,0.51
2023-02-22T11:20:41.353Z,0.47
2023-02-22T11:23:16.042Z,0.41
2023-02-22T11:26:28.785Z,0.39
2023-02-22T11:29:02.613Z,0.32
2023-02-22T11:31:41.647Z,0.35
2023-02-22T11:34:36.598Z,0.30
2023-02-22T11:37:29.459Z,0.25
2023-02-22T11:40:23.761Z,0.30
2023-02-22T11:43:12.426Z,0.38
2023-02-22T11:45:59.026Z,0.50
2023-02-22T11:48:35.115Z,0.55
2023-02-22T11:51:26.691Z,0.59
2023-02-22T11:54:25.529Z,0.54
2023-02-22T11:57:11.332Z,0.45
2023-02-22T12:00:34.308Z,0.42
2023-02-22T12:03:44.100Z,0.42
2023-02-22T12:06:25.266Z,0.42
2023-02-22T12:09:14.266Z,0.47
2023-02-22T12:12:11.276Z,0.57
2023-02-22T12:15:30.106Z,0.51
2023-02-22T12:18:09.086Z,0.43
2023-02-22T12:20:41.384Z,0.35
2023-02-22T12:23:30.280Z,0.32
2023-02-22T12:26:47.322Z,0.29
2023-02-22T12:29:37.900Z,0.22
2023-02-22T12:32:46.612Z,0.20
2023-02-22T12:35:37.596Z,0.28
2023-02-22T12:38:15.319Z,0.38
2023-02-22T12:40:49.267Z,0.36
2023-02-22T12:43:57.776Z,0.36
2023-02-22T12:46:39.918Z,0.38
2023-02-22T12:50:02.029Z,0.34
2023-02-22T12:53:12.424Z,0.30
2023-02-22T12:55:52.016Z,0.29
2023-02-22T12:58:39.048Z,0.28
2023-02-22T13:01:21.619Z,0.28
2023-02-22T13:03:53.046Z,0.32
2023-02-22T13:06:37.528Z,0.36
2023-02-22T13:09:35.034Z,0.39
2023-02-22T13:12:27.153Z,0.42
2023-02-22T13:15:48.438Z,0.41
2023-02-22T13:19:26.881Z,0.54
2023-02-22T13:22:18.853Z,0.60
2023-02-22T13:25:29.910Z,0.61
2023-02-22T13:28:37.403Z,0.52
2023-02-22T13:32:11.214Z,0.46
2023-02-22T13:35:14.603Z,0.37
2023-02-22T13:38:23.174Z,0.37
2023-02-22T13:45:09.912Z,0.51
2023-02-22T13:47:50.065Z,0.51
2023-02-22T13:51:08.317Z,0.46
2023-02-22T13:53:55.804Z,0.40
2023-02-22T13:56:50.306Z,0.39
2023-02-22T13:59:35.740Z,0.41
2023-02-22T14:02:32.958Z,0.42
2023-02-22T14:05:35.940Z,0.39
2023-02-22T14:08:35.457Z,0.38
2023-02-22T14:11:37.410Z,0.44
2023-02-22T14:14:20.558Z,0.47
2023-02-22T14:17:28.367Z,0.45
2023-02-22T14:20:06.064Z,0.44
2023-02-22T14:22:40.195Z,0.35
2023-02-22T14:25:49.212Z,0.27
2023-02-22T14:28:40.015Z,0.20
2023-02-22T14:31:35.582Z,0.12
2023-02-22T14:34:11.313Z,0.02
2023-02-22T14:37:02.409Z,-0.08
2023-02-22T14:40:13.324Z,-0.12
2023-02-22T14:42:45.597Z,-0.12
2023-02-22T14:45:46.229Z,-0.14
2023-02-22T14:48:44.556Z,-0.16
2023-02-22T14:51:23.611Z,-0.20
2023-02-22T14:54:00.496Z,-0.22
2023-02-22T14:56:52.531Z,-0.26
2023-02-22T14:59:51.462Z,-0.36
2023-02-22T15:02:26.600Z,-0.33
2023-02-22T15:05:05.329Z,-0.26
2023-02-22T15:07:38.051Z,-0.22
2023-02-22T15:10:27.043Z,-0.27
2023-02-22T15:13:09.630Z,-0.35
2023-02-22T15:15:49.200Z,-0.40
2023-02-22T15:18:34.881Z,-0.43
2023-02-22T15:21:13.105Z,-0.46
2023-02-22T15:24:05.870Z,-0.49
2023-02-22T15:26:49.068Z,-0.49
2023-02-22T15:30:06.945Z,-0.50
2023-02-22T15:32:57.189Z,-0.48
2023-02-22T15:35:53.839Z,-0.49
2023-02-22T15:38:31.129Z,-0.54
2023-02-22T15:41:13.810Z,-0.59
2023-02-22T15:44:37.350Z,-0.61
2023-02-22T15:47:22.766Z,-0.61
2023-02-22T15:50:22.340Z,-0.67
2023-02-22T15:53:45.638Z,-0.67
2023-02-22T15:56:32.507Z,-0.74
2023-02-22T15:59:10.413Z,-0.77
2023-02-22T16:01:44.267Z,-0.55
2023-02-22T16:04:19.173Z,-0.29
2023-02-22T16:06:52.260Z,-0.29
2023-02-22T16:09:26.340Z,-0.45
2023-02-22T16:12:23.292Z,-0.53
2023-02-22T16:15:06.365Z,-0.60
2023-02-22T16:18:00.940Z,-0.67
2023-02-22T16:20:36.640Z,-0.77
2023-02-22T16:23:46.929Z,-0.82
2023-02-22T16:26:33.562Z,-0.92
2023-02-22T16:29:07.075Z,-1.00
2023-02-22T16:31:39.870Z,-1.06
2023-02-22T16:34:15.909Z,-1.09
2023-02-22T16:36:52.783Z,-1.09
2023-02-22T16:39:47.322Z,-1.13
2023-02-22T16:42:24.396Z,-1.14
2023-02-22T16:44:57.789Z,-0.93
2023-02-22T16:47:31.236Z,-0.66
2023-02-22T16:50:07.847Z,-0.67
2023-02-22T16:52:49.497Z,-0.79
2023-02-22T16:55:22.937Z,-0.88
2023-02-22T16:58:01.223Z,-0.92
2023-02-22T17:00:32.826Z,-1.00
2023-02-22T17:03:54.202Z,-1.10
2023-02-22T17:06:30.688Z,-1.13
2023-02-22T17:09:02.412Z,-1.16
2023-02-22T17:11:40.443Z,-1.22
2023-02-22T17:14:23.492Z,-1.27
2023-02-22T17:17:00.430Z,-1.30
2023-02-22T17:19:37.511Z,-1.31
2023-02-22T17:22:10.629Z,-1.29
2023-02-22T17:24:46.223Z,-1.31
2023-02-22T17:27:21.074Z,-1.33
2023-02-22T17:29:52.632Z,-1.34
2023-02-22T17:32:25.938Z,-1.37
2023-02-22T17:34:56.867Z,-1.37
2023-02-22T17:37:29.322Z,-1.42
2023-02-22T17:40:02.532Z,-1.16
2023-02-22T17:42:39.036Z,-0.94
2023-02-22T17:45:41.122Z,-1.05
2023-02-22T17:48:15.764Z,-1.20
2023-02-22T17:50:47.159Z,-1.26
2023-02-22T17:53:25.747Z,-1.30
2023-02-22T17:55:59.661Z,-1.37
2023-02-22T17:58:31.398Z,-1.38
2023-02-22T18:01:22.156Z,-1.37
2023-02-22T18:04:03.731Z,-1.38
2023-02-22T18:06:40.316Z,-1.39
2023-02-22T18:09:36.249Z,-1.38
2023-02-22T18:12:10.125Z,-1.38
2023-02-22T18:17:01.681Z,-1.45
2023-02-22T18:19:37.421Z,-1.29
2023-02-22T18:22:07.934Z,-1.16
2023-02-22T18:25:02.548Z,-1.08
2023-02-22T18:27:34.023Z,-0.93
2023-02-22T18:30:07.610Z,-0.84
2023-02-22T18:33:34.460Z,-0.95
2023-02-22T18:36:14.807Z,-1.14
2023-02-22T18:38:44.609Z,-1.23
2023-02-22T18:41:16.745Z,-1.30
2023-02-22T18:43:51.652Z,-1.37
2023-02-22T18:46:29.416Z,-1.41
2023-02-22T18:49:00.669Z,-1.44
2023-02-22T18:52:00.502Z,-1.46
2023-02-22T18:55:00.884Z,-1.51
2023-02-22T18:57:31.439Z,-1.52
2023-02-22T19:00:02.374Z,-1.54
2023-02-22T19:02:33.294Z,-1.56
2023-02-22T19:05:06.218Z,-1.58
2023-02-22T19:07:39.180Z,-1.62
2023-02-22T19:10:11.545Z,-1.65
2023-02-22T19:12:49.691Z,-1.68
2023-02-22T19:15:22.714Z,-1.70
2023-02-22T19:17:54.100Z,-1.71
2023-02-22T19:20:32.616Z,-1.71
2023-02-22T19:23:03.969Z,-1.69
2023-02-22T19:25:46.881Z,-1.37
2023-02-22T19:28:52.913Z,-1.05
2023-02-22T19:31:30.661Z,-1.00
2023-02-22T19:34:43.406Z,-1.17
2023-02-22T19:37:42.545Z,-1.27
2023-02-22T19:40:16.350Z,-1.39
2023-02-22T19:42:47.144Z,-1.49
2023-02-22T19:45:20.406Z,-1.56
2023-02-22T19:48:01.155Z,-1.64
2023-02-22T19:50:35.420Z,-1.67
2023-02-22T19:53:13.525Z,-1.70
2023-02-22T19:55:51.153Z,-1.74
2023-02-22T19:58:22.623Z,-1.79
2023-02-22T20:01:22.914Z,-1.84
2023-02-22T20:04:17.557Z,-1.88
2023-02-22T20:08:02.701Z,-1.88
2023-02-22T20:10:42.048Z,-1.77
2023-02-22T20:13:17.666Z,-1.42
2023-02-22T20:15:55.695Z,-1.28
2023-02-22T20:18:45.679Z,-1.43
2023-02-22T20:21:22.500Z,-1.54
2023-02-22T20:23:57.522Z,-1.59
2023-02-22T20:26:33.351Z,-1.60
2023-02-22T20:29:07.023Z,-1.64
2023-02-22T20:31:39.744Z,-1.70
2023-02-22T20:34:13.256Z,-1.75
2023-02-22T20:36:44.613Z,-1.82
2023-02-22T20:39:19.654Z,-1.87
2023-02-22T20:42:08.954Z,-1.89
2023-02-22T20:45:04.854Z,-1.90
2023-02-22T20:47:42.218Z,-1.92
2023-02-22T20:50:40.789Z,-1.95
2023-02-22T20:53:14.728Z,-1.96
2023-02-22T20:55:59.362Z,-1.98
2023-02-22T20:58:33.365Z,-1.99
2023-02-22T21:01:19.535Z,-2.01
2023-02-22T21:03:50.345Z,-2.04
2023-02-22T21:06:26.495Z,-2.07
2023-02-22T21:09:07.439Z,-1.88
2023-02-22T21:11:49.290Z,-1.50
2023-02-22T21:14:21.878Z,-1.50
2023-02-22T21:16:56.711Z,-1.67
2023-02-22T21:19:32.357Z,-1.77
2023-02-22T21:22:08.288Z,-1.82
2023-02-22T21:24:40.361Z,-1.85
2023-02-22T21:27:21.131Z,-1.92
2023-02-22T21:29:58.661Z,-2.00
2023-02-22T21:32:29.441Z,-2.08
2023-02-22T21:35:07.152Z,-2.14
2023-02-22T21:37:41.481Z,-2.17
2023-02-22T21:40:19.255Z,-2.19
2023-02-22T21:42:50.788Z,-2.20
2023-02-22T21:45:26.309Z,-2.22
2023-02-22T21:47:58.980Z,-2.24
2023-02-22T21:50:37.921Z,-2.25
2023-02-22T21:53:08.726Z,-2.26
2023-02-22T21:56:13.252Z,-2.27
2023-02-22T21:58:55.551Z,-2.28
2023-02-22T22:01:28.563Z,-2.31
2023-02-22T22:04:01.010Z,-2.32
2023-02-22T22:06:35.731Z,-2.32
2023-02-22T22:09:18.386Z,-2.36
2023-02-22T22:11:51.124Z,-2.18
2023-02-22T22:14:23.361Z,-1.99
2023-02-22T22:17:00.333Z,-2.04
2023-02-22T22:19:39.471Z,-2.14
2023-02-22T22:22:13.225Z,-2.22
2023-02-22T22:24:46.106Z,-2.27
2023-02-22T22:27:18.691Z,-2.31
2023-02-22T22:29:57.376Z,-2.36
2023-02-22T22:32:30.496Z,-2.40
2023-02-22T22:35:14.776Z,-2.44
2023-02-22T22:38:06.936Z,-2.46
2023-02-22T22:40:39.022Z,-2.47
2023-02-22T22:43:12.064Z,-2.16
2023-02-22T22:49:04.218Z,-2.09
2023-02-22T22:51:33.760Z,-2.22
2023-02-22T22:54:10.413Z,-2.34
2023-02-22T22:56:42.186Z,-2.48
2023-02-22T22:59:14.753Z,-2.62
2023-02-22T23:01:51.903Z,-2.72
2023-02-22T23:04:26.064Z,-2.83
2023-02-22T23:06:57.058Z,-2.90
2023-02-22T23:09:29.875Z,-2.95
2023-02-22T23:12:17.093Z,-3.01
2023-02-22T23:14:58.060Z,-3.05
2023-02-22T23:17:59.481Z,-3.06
2023-02-22T23:20:38.358Z,-2.74
2023-02-22T23:23:14.311Z,-2.49
2023-02-22T23:25:56.124Z,-2.65
2023-02-22T23:28:26.616Z,-2.78
2023-02-22T23:30:56.809Z,-2.83
2023-02-22T23:33:30.780Z,-2.88
2023-02-22T23:36:00.902Z,-2.93
2023-02-22T23:38:32.385Z,-2.95
2023-02-22T23:41:10.568Z,-2.97
2023-02-22T23:43:40.526Z,-3.02
2023-02-22T23:46:14.287Z,-3.06
2023-02-22T23:48:50.841Z,-3.10
2023-02-22T23:51:31.801Z,-3.13
2023-02-22T23:54:03.970Z,-3.15
2023-02-22T23:56:40.517Z,-3.19
2023-02-22T23:59:13.787Z,-3.22
